Franklin, Kansas
Current Conditions -  °F | °C
As of 1:15 PM on Thursday 30 Oct 2014 (Local Time) from KPTS Reporting Station
Clear Clear  
Wind Chill: 68°   Ceiling: Unl
Heat Index: 68°   Visibility: 10mi
Dew Point: 45°   Wind: 15mph
Humidity: 44%   Direction: 320°NW
Pressure: 30.03"   Gusts: 18mph
Location:  37.53°N, 94.71°W
Report Text: KPTS 301815Z AUTO 32013G16KT 290V350 10SM CLR 20/07 A3003 RMK AO2 T01980072
Loading
Personal Weather Stations






























Interactive Weather Map
Tropical Storm Tracking
New forecast layout! Learn more

10-Day Weather Forecast

Advertisements
Track Severe Weather on mobile